Airfield :







YOU CAN JOIN US ON...

 
LOGIN :

Register | Disclaimer

   EN    FR    IT 

 









Legend :    VFR   Marginal VFR   IFR   Intensive IFR   Very Intensive IFR
Visi :
Ceiling :
>= 8 km
>= 3000ft
5 to 8 km
1000 to 3000 ft
1500m to 5 km
500 to 1000 ft
800 to 1500m
200 to 500 ft
< 800m
< 200 ft
Symbols :   Thunderstorms  Fog  Heavy snow  Heavy precipitations  Wind > 20 kt






- Airport Elevation : 988 ft


KFVE - Northern Aroostook Regional

CURRENT METAR :
  • 150416Z AUTO 09011G18KT 1 1/4SM RA BR OVC006 01/01 A2905 RMK AO2 PRESFR P0004 T00110011

EXPIRED METARs :
  • 150353Z AUTO 09011G18KT 3/4SM -RA BR VV003 01/01 A2908 RMK AO2 RAB40 SLP853 P0000 T00110011
  • 150327Z AUTO 09010KT 3/4SM BR VV004 01/01 A2911 RMK AO2 T00110011
  • 150253Z AUTO 09011G18KT 1SM BR VV004 01/01 A2914 RMK AO2 UPB11E20 PRESFR SLP874 P0000 60000 T00110011 56041
  • 150214Z AUTO 09009KT 3/4SM UP BR VV004 02/01 A2919 RMK AO2 UPB11 P0000 T00170011
  • 150153Z AUTO 08008KT 1SM BR VV004 02/01 A2921 RMK AO2 SLP898 T00170011
  • 150134Z AUTO 09009G19KT 1SM BR VV004 02/01 A2922 RMK AO2 T00170011

TAF KFVE
Valid from the 15 at 04:00 until the 16 at 00:00 UTC


150338Z 1504/1524 09010G18KT 1SM -RA BR OVC004 WS020/16040KT
FM151100 21012G23KT 1SM -SHRA OVC006
FM151300 22014G29KT 5SM -SHRASN OVC020
FM151500 23018G36KT P6SM VCSH OVC015
FM152000 27023G40KT P6SM BKN035



MET'MAP, your aeronautical weather chart ! - Copyright ORBIFLY December 2007 - Disclaimer

ORBIFLY MET'MAP TEAM :

Programming & Development : Alexandra Zaïnal
Concept & original design : Baudouin d'Aumeries
Assistance for programming : Marc-Olivier Méhu
Technical & hardware support : Manuel Goepfert

Contact : metmap@orbifly.com




SOURCES & CREDITS :

   NOAA